Hauptseite
METAR-TAF:

METAR-TAF

Flughäfen :

Flughafen Larnaka

Larnaka, Zypern

Breite: 34-53N, Länge: 033-38E, Höhe: 2 m

Beobachtung

Neuester Wetterbericht von vor 35 Minuten, um 12:00 UTC
Wind 17 kt aus Südwest
Temperatur 32°C
Luftfeuchtigkeit 56%
Luftdruck 1007 hPa
Sichtweite 10 km oder mehr
Leicht bewölkt in der Höhe von 3000 ft

METAR: LCLK 161200Z 22017KT 9999 FEW030 32/22 Q1007 NOSIG

Zeit: 15:35 (12:35 UTC)

Prognose

Neuester Wetterbericht von vor 1 Stunde und 5 Minuten, um 11:30 UTC
Gültige Prognose vom 16 um 12 UTC bis 17 um 12 UTC
Wind 18 kt aus Süd/Südwest
Sichtweite 10 km oder mehr
Leicht bewölkt in der Höhe von 3000 ft
Übergehend zu
vom 16 um 19 UTC bis 16 um 23 UTC
Wind 6 kt aus Nordwest
Übergehend zu
vom 17 um 10 UTC bis 17 um 12 UTC
Wind 18 kt aus Süd/Südwest

TAF: LCLK 161130Z 1612/1712 21018KT 9999 FEW030 BECMG 1619/1623 32006KT BECMG 1710/1712 21018KT

Wetterbeobachtungen und Prognosen von mehr als 4000 Flughäfen (METAR und TAF Bericht).

Die verfügbaren Stationen werden durch gelbe und rote Markierungen auf der Karte dargestellt.

Führen Sie die Maus auf sie, um den Namen der Station zu sehen.

Darauf klicken, um die Beobachtung von Wetterbeobachtungen und Prognosen zu sehen.

Um die Karte zu ändern : klicken Sie auf den grünen Tasten mit einem schwarzen Kreuz Zum Vergrößern, auf den grünen Button mit einem Gedankenstrich zu verkleinern, oder auf die grünen Pfeile für benachbarte Karten.


METAR-TAF: